Time;durP1;ratioP1;P1;durP2;ratioP2;P2;SDS_P1;SDS_P2;PMS_P1;PMS_P2;Temp;Humidity;BMP_temperature;BMP_pressure;BME280_temperature;BME280_humidity;BME280_pressure;Samples;Min_cycle;Max_cycle;Signal;HPM_P1;HPM_P2
2022/04/08 00:00:26;;;;;;;4.10;1.17;;;10.70;99.90;;;;;;1917637;74;21098;-71
2022/04/08 00:02:53;;;;;;;2.75;0.88;;;10.60;99.90;;;;;;1920022;74;21459;-71
2022/04/08 00:05:20;;;;;;;6.83;1.40;;;10.60;99.90;;;;;;1919661;75;21040;-71
2022/04/08 00:07:48;;;;;;;11.65;1.90;;;10.60;99.90;;;;;;1920696;74;21043;-71
2022/04/08 00:10:15;;;;;;;11.12;1.42;;;10.60;99.90;;;;;;1919939;74;21549;-71
2022/04/08 00:12:44;;;;;;;3.92;1.20;;;10.60;99.90;;;;;;1923300;73;21071;-71
2022/04/08 00:15:11;;;;;;;4.92;1.17;;;10.60;99.90;;;;;;1921532;74;21152;-71
2022/04/08 00:17:38;;;;;;;5.85;1.30;;;10.50;99.90;;;;;;1921115;75;21088;-71
2022/04/08 00:20:06;;;;;;;7.03;1.32;;;10.60;99.90;;;;;;1923302;73;21072;-71
2022/04/08 00:22:38;;;;;;;5.12;1.20;;;10.50;99.90;;;;;;1926069;73;21485;-71
2022/04/08 00:25:04;;;;;;;6.95;1.50;;;10.50;99.90;;;;;;1920647;73;21078;-71
2022/04/08 00:27:31;;;;;;;6.58;1.42;;;10.50;99.90;;;;;;1922602;74;21069;-71
2022/04/08 00:29:59;;;;;;;3.10;1.27;;;10.50;99.90;;;;;;1925622;73;21354;-71
2022/04/08 00:32:30;;;;;;;5.95;1.40;;;10.50;99.90;;;;;;1921828;74;21544;-71
2022/04/08 00:34:55;;;;;;;4.55;1.30;;;10.40;99.90;;;;;;1924104;73;21154;-71
2022/04/08 00:37:22;;;;;;;6.62;1.60;;;10.50;99.90;;;;;;1922691;74;21170;-71
2022/04/08 00:39:50;;;;;;;5.80;1.25;;;10.50;99.90;;;;;;1917007;74;21174;-71
2022/04/08 00:42:17;;;;;;;10.70;1.52;;;10.40;99.90;;;;;;1919872;74;21081;-71
2022/04/08 00:44:45;;;;;;;5.17;1.70;;;10.50;99.90;;;;;;1924607;73;21080;-70
2022/04/08 00:47:12;;;;;;;5.45;1.40;;;10.50;99.90;;;;;;1923042;74;21148;-71
2022/04/08 00:49:41;;;;;;;5.60;1.40;;;10.40;99.90;;;;;;1921107;73;21072;-71
2022/04/08 00:52:08;;;;;;;5.47;1.20;;;10.40;99.90;;;;;;1921067;75;21473;-71
2022/04/08 00:54:35;;;;;;;6.05;1.20;;;10.50;99.90;;;;;;1923125;73;21075;-71
2022/04/08 00:57:03;;;;;;;7.85;1.85;;;10.40;99.90;;;;;;1922528;73;21074;-71
2022/04/08 00:59:31;;;;;;;6.70;1.40;;;10.30;99.90;;;;;;1921010;75;21456;-71
2022/04/08 01:02:01;;;;;;;13.58;1.60;;;10.30;99.90;;;;;;1919023;73;21067;-71
2022/04/08 01:04:28;;;;;;;6.08;1.35;;;10.30;99.90;;;;;;1920064;75;21041;-71
2022/04/08 01:06:55;;;;;;;5.97;1.37;;;10.30;99.90;;;;;;1922860;73;21072;-71
2022/04/08 01:09:23;;;;;;;3.65;1.25;;;10.40;99.90;;;;;;1922384;74;21092;-71
2022/04/08 01:11:51;;;;;;;7.42;1.70;;;10.40;99.90;;;;;;1917582;74;21459;-71
2022/04/08 01:14:18;;;;;;;7.95;1.62;;;10.30;99.90;;;;;;1920617;74;21114;-71
2022/04/08 01:16:45;;;;;;;7.08;1.40;;;10.30;99.90;;;;;;1922374;74;21057;-71
2022/04/08 01:19:13;;;;;;;5.33;1.60;;;10.40;99.90;;;;;;1922951;73;21156;-71
2022/04/08 01:21:40;;;;;;;4.00;1.37;;;10.30;99.90;;;;;;1922488;73;21140;-71
2022/04/08 01:24:11;;;;;;;7.25;1.47;;;10.30;99.90;;;;;;1919062;74;21171;-71
2022/04/08 01:26:42;;;;;;;12.13;1.80;;;10.20;99.90;;;;;;1921037;74;21086;-72
2022/04/08 01:29:29;;;;;;;6.05;1.15;;;10.20;99.90;;;;;;1921937;73;21259;-71
2022/04/08 01:31:56;;;;;;;13.08;1.35;;;10.20;99.90;;;;;;1935751;74;21063;-72
2022/04/08 01:34:23;;;;;;;5.30;1.25;;;10.30;99.90;;;;;;1926072;74;21017;-72
2022/04/08 01:36:50;;;;;;;5.30;1.17;;;10.20;99.90;;;;;;1922908;74;21163;-71
2022/04/08 01:39:18;;;;;;;4.92;0.98;;;10.20;99.90;;;;;;1925937;73;21094;-71
2022/04/08 01:41:45;;;;;;;8.18;1.15;;;10.10;99.90;;;;;;1916383;75;21027;-72
2022/04/08 01:44:12;;;;;;;9.73;1.50;;;10.20;99.90;;;;;;1921250;74;21079;-71
2022/04/08 01:46:40;;;;;;;4.08;1.65;;;10.20;99.90;;;;;;1922955;74;21048;-71
2022/04/08 01:49:07;;;;;;;8.28;1.22;;;10.20;99.90;;;;;;1924631;73;21436;-71
2022/04/08 01:51:34;;;;;;;6.87;1.42;;;10.10;99.90;;;;;;1923107;74;21118;-71
2022/04/08 01:54:02;;;;;;;6.37;1.40;;;10.20;99.90;;;;;;1928352;73;21178;-71
2022/04/08 01:56:29;;;;;;;5.15;1.10;;;10.10;99.90;;;;;;1927393;73;21131;-72
2022/04/08 01:58:56;;;;;;;5.37;1.35;;;10.00;99.90;;;;;;1921419;73;21126;-71
2022/04/08 02:01:23;;;;;;;5.40;1.47;;;10.00;99.90;;;;;;1924387;74;21155;-71
2022/04/08 02:03:51;;;;;;;6.75;1.32;;;10.00;99.90;;;;;;1923604;74;21058;-72
2022/04/08 02:06:18;;;;;;;6.92;1.70;;;10.10;99.90;;;;;;1923306;74;21012;-72
2022/04/08 02:08:45;;;;;;;4.75;1.35;;;10.00;99.90;;;;;;1925271;73;21089;-70
2022/04/08 02:11:13;;;;;;;4.28;0.95;;;10.00;99.90;;;;;;1924440;74;21139;-71
2022/04/08 02:13:40;;;;;;;3.58;1.10;;;10.00;99.90;;;;;;1923731;73;21129;-72
2022/04/08 02:16:07;;;;;;;6.40;1.10;;;10.00;99.90;;;;;;1921265;74;21440;-72
2022/04/08 02:18:35;;;;;;;3.60;0.93;;;10.00;99.90;;;;;;1927322;74;21058;-72
2022/04/08 02:21:02;;;;;;;3.98;1.00;;;9.90;99.90;;;;;;1918505;74;21193;-71
2022/04/08 02:23:29;;;;;;;3.12;0.95;;;10.00;99.90;;;;;;1917380;74;21485;-72
2022/04/08 02:25:56;;;;;;;3.80;1.00;;;9.90;99.90;;;;;;1921637;74;21068;-72
2022/04/08 02:28:24;;;;;;;8.03;1.47;;;9.90;99.90;;;;;;1923301;74;21528;-71
2022/04/08 02:30:53;;;;;;;5.45;1.22;;;9.90;99.90;;;;;;1924015;74;21595;-71
2022/04/08 02:33:20;;;;;;;7.97;1.55;;;9.80;99.90;;;;;;1923314;74;21185;-71
2022/04/08 02:35:47;;;;;;;6.42;1.42;;;9.80;99.90;;;;;;1923243;73;21068;-72
2022/04/08 02:38:15;;;;;;;4.00;1.22;;;9.80;99.90;;;;;;1922829;74;21085;-71
2022/04/08 02:40:42;;;;;;;3.92;1.40;;;9.80;99.90;;;;;;1919705;74;21125;-71
2022/04/08 02:43:10;;;;;;;13.68;1.25;;;9.80;99.90;;;;;;1928075;74;21086;-71
2022/04/08 02:45:37;;;;;;;6.15;1.00;;;9.80;99.90;;;;;;1922587;74;21084;-72
2022/04/08 02:48:05;;;;;;;4.15;1.15;;;9.70;99.90;;;;;;1920518;74;21053;-71
2022/04/08 02:50:32;;;;;;;3.65;1.10;;;9.70;99.90;;;;;;1922965;73;21133;-71
2022/04/08 02:52:59;;;;;;;4.72;1.40;;;9.60;99.90;;;;;;1926663;73;21053;-71
2022/04/08 02:55:27;;;;;;;7.62;1.70;;;9.70;99.90;;;;;;1925905;74;21272;-72
2022/04/08 02:57:54;;;;;;;3.70;1.32;;;9.60;99.90;;;;;;1923155;74;21023;-71
2022/04/08 03:00:21;;;;;;;4.65;1.12;;;9.60;99.90;;;;;;1924765;73;21177;-71
2022/04/08 03:02:49;;;;;;;7.22;1.67;;;9.50;99.90;;;;;;1923359;73;21160;-72
2022/04/08 03:05:16;;;;;;;2.35;1.20;;;9.50;99.90;;;;;;1922253;73;21089;-72
2022/04/08 03:07:44;;;;;;;13.70;2.05;;;9.60;99.90;;;;;;1922870;74;21448;-71
2022/04/08 03:10:11;;;;;;;10.95;1.72;;;9.50;99.90;;;;;;1919832;74;21485;-71
2022/04/08 03:12:38;;;;;;;5.53;1.40;;;9.50;99.90;;;;;;1924321;73;21076;-72
2022/04/08 03:15:06;;;;;;;3.00;1.17;;;9.50;99.90;;;;;;1922065;74;21083;-71
2022/04/08 03:17:36;;;;;;;3.05;1.30;;;9.50;99.90;;;;;;1929821;73;21480;-72
2022/04/08 03:20:04;;;;;;;6.03;1.63;;;9.30;99.90;;;;;;1895601;74;21092;-71
2022/04/08 03:22:31;;;;;;;11.15;1.60;;;9.30;99.90;;;;;;1930183;73;21075;-72
2022/04/08 03:24:58;;;;;;;7.20;1.30;;;9.30;99.90;;;;;;1927112;73;21188;-71
2022/04/08 03:27:26;;;;;;;6.85;1.37;;;9.30;99.90;;;;;;1917451;74;21145;-71
2022/04/08 03:29:53;;;;;;;4.08;1.10;;;9.40;99.90;;;;;;1922609;74;21105;-71
2022/04/08 03:32:21;;;;;;;3.37;0.95;;;9.40;99.90;;;;;;1925953;73;21041;-71
2022/04/08 03:34:57;;;;;;;5.42;1.20;;;9.50;99.90;;;;;;1924632;74;21568;-71
2022/04/08 03:37:19;;;;;;;6.05;1.20;;;9.40;99.90;;;;;;1923182;73;21103;-71
2022/04/08 03:39:46;;;;;;;4.05;1.30;;;9.40;99.90;;;;;;1923357;74;21056;-72
2022/04/08 03:42:13;;;;;;;3.47;1.40;;;9.40;99.90;;;;;;1920438;74;21150;-71
2022/04/08 03:44:40;;;;;;;10.85;1.77;;;9.30;99.90;;;;;;1923631;74;21137;-71
2022/04/08 03:47:08;;;;;;;3.33;1.10;;;9.30;99.90;;;;;;1918882;74;21194;-72
2022/04/08 03:49:36;;;;;;;3.47;1.02;;;9.30;99.90;;;;;;1919294;74;21077;-71
2022/04/08 03:52:09;;;;;;;4.67;1.20;;;9.30;99.90;;;;;;1924963;74;21082;-71
2022/04/08 03:54:37;;;;;;;16.32;1.57;;;9.20;99.90;;;;;;1921969;73;21197;-72
2022/04/08 03:57:05;;;;;;;7.47;1.47;;;9.20;99.90;;;;;;1921135;74;21074;-71
2022/04/08 03:59:32;;;;;;;5.20;1.60;;;9.20;99.90;;;;;;1923326;73;21106;-72
2022/04/08 04:02:01;;;;;;;5.20;1.35;;;9.10;99.90;;;;;;1921566;74;21496;-71
2022/04/08 04:04:28;;;;;;;3.77;1.32;;;9.20;99.90;;;;;;1921756;73;21084;-71
2022/04/08 04:06:56;;;;;;;4.92;1.07;;;9.20;99.90;;;;;;1923006;74;21085;-71
2022/04/08 04:09:23;;;;;;;6.65;1.10;;;9.20;99.90;;;;;;1927691;73;21145;-71
2022/04/08 04:11:51;;;;;;;5.92;1.60;;;9.10;99.90;;;;;;1921864;74;21475;-71
2022/04/08 04:14:18;;;;;;;5.05;1.20;;;9.10;99.90;;;;;;1919887;74;21161;-71
2022/04/08 04:16:46;;;;;;;10.38;1.60;;;9.10;99.90;;;;;;1925607;73;21154;-71
2022/04/08 04:19:13;;;;;;;6.05;1.40;;;9.20;99.90;;;;;;1922299;74;21025;-71
2022/04/08 04:21:40;;;;;;;4.83;1.30;;;9.10;99.90;;;;;;1922129;74;21075;-71
2022/04/08 04:24:08;;;;;;;18.67;1.72;;;9.00;99.90;;;;;;1922690;74;21037;-72
2022/04/08 04:26:35;;;;;;;6.22;1.47;;;9.00;99.90;;;;;;1927662;73;21077;-72
2022/04/08 04:29:02;;;;;;;10.80;1.37;;;9.00;99.90;;;;;;1928193;74;21464;-71
2022/04/08 04:31:30;;;;;;;12.15;1.25;;;9.10;99.90;;;;;;1929895;73;21058;-71
2022/04/08 04:33:57;;;;;;;2.70;0.85;;;9.00;99.90;;;;;;1924727;74;21067;-72
2022/04/08 04:36:24;;;;;;;5.42;0.93;;;9.00;99.90;;;;;;1924794;73;21151;-71
2022/04/08 04:38:52;;;;;;;4.20;1.02;;;9.00;99.90;;;;;;1925812;73;21069;-71
2022/04/08 04:41:20;;;;;;;6.42;1.10;;;8.90;99.90;;;;;;1918893;74;21450;-71
2022/04/08 04:43:47;;;;;;;5.50;1.40;;;8.90;99.90;;;;;;1918847;74;21474;-72
2022/04/08 04:46:14;;;;;;;2.00;1.07;;;8.80;99.90;;;;;;1923138;73;21074;-71
2022/04/08 04:48:42;;;;;;;8.55;1.67;;;8.90;99.90;;;;;;1922182;73;21385;-71
2022/04/08 04:51:11;;;;;;;6.05;1.10;;;8.90;99.90;;;;;;1924797;73;21081;-72
2022/04/08 04:53:38;;;;;;;7.17;1.75;;;8.80;99.90;;;;;;1921048;74;21556;-71
2022/04/08 04:56:05;;;;;;;9.10;1.30;;;8.80;99.90;;;;;;1926214;73;21065;-72
2022/04/08 04:58:32;;;;;;;9.58;1.20;;;8.80;99.90;;;;;;1928507;73;21057;-72
2022/04/08 05:01:00;;;;;;;4.92;1.47;;;8.90;99.90;;;;;;1923916;74;21079;-71
2022/04/08 05:03:27;;;;;;;6.22;1.65;;;9.00;99.90;;;;;;1925604;74;21079;-72
2022/04/08 05:05:59;;;;;;;4.12;1.67;;;9.00;99.90;;;;;;1921135;74;21065;-70
2022/04/08 05:08:29;;;;;;;6.47;1.42;;;9.00;99.90;;;;;;1921028;73;21493;-69
2022/04/08 05:10:58;;;;;;;7.40;1.30;;;9.00;99.90;;;;;;1924715;74;21045;-69
2022/04/08 05:13:32;;;;;;;4.97;1.40;;;9.10;99.90;;;;;;1924741;74;21433;-70
2022/04/08 05:16:00;;;;;;;9.33;1.40;;;8.90;99.90;;;;;;1923471;74;21082;-70
2022/04/08 05:18:29;;;;;;;5.10;1.40;;;9.00;99.90;;;;;;1927265;73;21123;-69
2022/04/08 05:20:56;;;;;;;4.55;1.27;;;9.00;99.90;;;;;;1921953;74;21231;-70
2022/04/08 05:23:28;;;;;;;4.15;1.52;;;8.90;99.90;;;;;;1922197;73;21143;-70
2022/04/08 05:25:52;;;;;;;5.25;1.17;;;8.90;99.90;;;;;;1925839;73;21150;-69
2022/04/08 05:28:20;;;;;;;8.48;1.50;;;8.90;99.90;;;;;;1918212;74;21062;-69
2022/04/08 05:30:47;;;;;;;6.55;1.50;;;8.80;99.90;;;;;;1925311;73;21085;-70
2022/04/08 05:33:14;;;;;;;8.98;1.47;;;8.80;99.90;;;;;;1923066;74;21128;-69
2022/04/08 05:35:42;;;;;;;7.78;1.65;;;8.80;99.90;;;;;;1924469;73;21402;-69
2022/04/08 05:38:09;;;;;;;6.12;1.60;;;8.90;99.90;;;;;;1920424;74;21038;-68
2022/04/08 05:40:36;;;;;;;10.20;1.50;;;9.00;99.90;;;;;;1924513;74;21073;-68
2022/04/08 05:43:04;;;;;;;5.45;1.15;;;8.90;99.90;;;;;;1925657;74;21497;-68
2022/04/08 05:45:31;;;;;;;4.85;1.60;;;9.00;99.90;;;;;;1923004;73;21216;-69
2022/04/08 05:48:04;;;;;;;5.20;1.42;;;9.00;99.90;;;;;;1923879;74;21049;-71
2022/04/08 05:50:32;;;;;;;12.78;1.40;;;9.00;99.90;;;;;;1920019;73;21077;-70
2022/04/08 05:52:59;;;;;;;4.25;1.05;;;9.00;99.90;;;;;;1918981;74;21050;-75
2022/04/08 05:55:26;;;;;;;6.25;1.47;;;9.10;99.90;;;;;;1924632;74;21050;-76
2022/04/08 05:57:55;;;;;;;9.88;1.87;;;9.10;99.90;;;;;;1929812;73;21081;-76
2022/04/08 06:00:23;;;;;;;6.35;1.67;;;9.10;99.90;;;;;;1924899;74;21175;-75
2022/04/08 06:02:53;;;;;;;5.80;2.00;;;9.10;99.90;;;;;;1923192;74;21221;-74
2022/04/08 06:05:20;;;;;;;8.38;1.57;;;9.10;99.90;;;;;;1919618;74;21093;-75
2022/04/08 06:07:52;;;;;;;10.48;2.00;;;9.10;99.90;;;;;;1920635;73;21132;-75
2022/04/08 06:10:26;;;;;;;5.65;1.32;;;9.10;99.90;;;;;;1918423;74;21184;-75
2022/04/08 06:12:51;;;;;;;8.85;1.80;;;9.10;99.90;;;;;;1922816;73;21093;-76
2022/04/08 06:15:18;;;;;;;8.35;1.85;;;9.10;99.90;;;;;;1923301;74;21205;-74
2022/04/08 06:17:46;;;;;;;4.95;1.32;;;9.20;99.90;;;;;;1919528;73;21466;-75
2022/04/08 06:20:16;;;;;;;6.12;1.15;;;9.20;99.90;;;;;;1921041;74;21054;-76
2022/04/08 06:22:43;;;;;;;2.60;1.15;;;9.10;99.90;;;;;;1926121;73;21168;-77
2022/04/08 06:25:12;;;;;;;3.90;1.40;;;9.10;99.90;;;;;;1924252;74;21449;-76
2022/04/08 06:27:41;;;;;;;7.00;1.47;;;8.90;99.90;;;;;;1924506;73;21123;-79
2022/04/08 06:30:10;;;;;;;4.03;1.47;;;9.00;99.90;;;;;;1896885;74;21074;-78
2022/04/08 06:32:38;;;;;;;4.05;1.40;;;9.10;99.90;;;;;;1930295;74;21112;-78
2022/04/08 06:35:05;;;;;;;4.28;1.65;;;9.00;99.90;;;;;;1926342;73;21081;-78
2022/04/08 06:37:34;;;;;;;8.63;1.57;;;8.90;99.90;;;;;;1920034;74;21118;-77
2022/04/08 06:40:05;;;;;;;6.65;1.40;;;8.80;99.90;;;;;;1924362;73;21443;-77
2022/04/08 06:42:33;;;;;;;4.08;1.20;;;8.80;99.90;;;;;;1923879;74;21091;-75
2022/04/08 06:45:00;;;;;;;5.55;1.20;;;8.70;99.90;;;;;;1918429;74;21060;-75
2022/04/08 06:47:28;;;;;;;10.13;1.25;;;8.60;99.90;;;;;;1919606;74;21475;-76
2022/04/08 06:49:55;;;;;;;5.42;1.00;;;8.60;99.90;;;;;;1923800;74;21218;-78
2022/04/08 06:52:24;;;;;;;3.42;1.27;;;8.60;99.90;;;;;;1922007;73;21164;-76
2022/04/08 06:54:51;;;;;;;4.00;1.20;;;8.60;99.90;;;;;;1923270;73;21124;-77
2022/04/08 06:57:18;;;;;;;7.97;1.07;;;8.60;99.90;;;;;;1936086;73;21539;-78
2022/04/08 06:59:46;;;;;;;5.17;1.00;;;8.50;99.90;;;;;;1931089;73;21142;-78
2022/04/08 07:02:13;;;;;;;4.17;1.27;;;8.40;99.90;;;;;;1894435;74;21081;-77
2022/04/08 07:04:41;;;;;;;5.40;1.17;;;8.30;99.90;;;;;;1926450;73;21073;-78
2022/04/08 07:07:11;;;;;;;3.37;1.17;;;8.20;99.90;;;;;;1926061;73;21073;-78
2022/04/08 07:09:47;;;;;;;3.75;1.00;;;8.10;99.90;;;;;;1922370;74;21084;-75
2022/04/08 07:12:15;;;;;;;1.10;0.72;;;8.10;99.90;;;;;;1923733;73;21262;-77
2022/04/08 07:14:49;;;;;;;3.72;1.45;;;8.00;99.90;;;;;;1921575;73;21074;-76
2022/04/08 07:17:42;;;;;;;2.37;0.90;;;8.10;99.90;;;;;;1923855;74;21067;-76
2022/04/08 07:20:26;;;;;;;3.95;1.15;;;8.10;99.90;;;;;;1922489;73;21054;-77
2022/04/08 07:23:03;;;;;;;2.67;0.80;;;8.10;99.90;;;;;;1920873;73;21094;-76
2022/04/08 07:25:41;;;;;;;2.83;0.93;;;7.90;99.90;;;;;;1926670;73;21159;-78
2022/04/08 07:28:10;;;;;;;2.62;1.02;;;7.90;99.90;;;;;;1931951;73;21056;-78
2022/04/08 07:30:37;;;;;;;3.20;1.10;;;8.00;99.90;;;;;;1928062;72;21493;-77
2022/04/08 07:33:05;;;;;;;3.25;0.75;;;7.90;99.90;;;;;;1923625;73;21162;-77
2022/04/08 07:35:33;;;;;;;2.37;1.00;;;7.90;99.90;;;;;;1926938;74;21132;-77
2022/04/08 07:38:01;;;;;;;12.50;0.90;;;7.80;99.90;;;;;;1924307;74;21081;-78
2022/04/08 07:40:30;;;;;;;4.83;0.80;;;7.80;99.90;;;;;;1927783;73;21077;-74
2022/04/08 07:42:57;;;;;;;0.80;0.62;;;7.70;99.90;;;;;;1903163;74;21138;-76
2022/04/08 07:45:27;;;;;;;3.08;1.00;;;7.50;99.90;;;;;;1923863;74;21110;-77
2022/04/08 07:47:58;;;;;;;4.30;0.88;;;7.50;99.90;;;;;;1923103;73;21165;-77
2022/04/08 07:50:26;;;;;;;2.70;0.80;;;7.60;99.90;;;;;;1925273;73;21110;-77
2022/04/08 07:52:54;;;;;;;4.28;0.90;;;7.60;99.90;;;;;;1926994;73;21113;-76
2022/04/08 07:55:24;;;;;;;8.70;1.10;;;7.50;99.90;;;;;;1924150;74;21065;-77
2022/04/08 07:57:51;;;;;;;4.65;0.85;;;7.50;99.90;;;;;;1923665;73;21113;-76
2022/04/08 08:00:20;;;;;;;5.58;0.70;;;7.60;99.90;;;;;;1923189;73;21132;-75
2022/04/08 08:02:48;;;;;;;3.80;0.72;;;7.90;99.90;;;;;;1922128;73;21124;-76
2022/04/08 08:05:15;;;;;;;5.25;1.07;;;8.00;99.90;;;;;;1922801;74;21204;-75
2022/04/08 08:07:54;;;;;;;1.82;0.70;;;7.90;99.90;;;;;;1923981;73;21120;-76
2022/04/08 08:10:28;;;;;;;2.02;0.78;;;8.00;99.90;;;;;;1921163;74;21157;-76
2022/04/08 08:12:57;;;;;;;1.75;0.60;;;8.10;99.90;;;;;;1920223;73;21147;-74
2022/04/08 08:15:24;;;;;;;2.27;0.70;;;8.20;99.90;;;;;;1925514;73;21077;-75
2022/04/08 08:17:51;;;;;;;1.20;0.60;;;8.30;99.90;;;;;;1917394;75;21431;-76
2022/04/08 08:20:21;;;;;;;4.70;0.95;;;8.30;99.90;;;;;;1935128;74;21114;-78
2022/04/08 08:22:48;;;;;;;4.10;0.78;;;8.40;99.90;;;;;;1924087;73;21131;-77
2022/04/08 08:25:16;;;;;;;4.08;0.90;;;8.60;99.90;;;;;;1923134;73;21074;-77
2022/04/08 08:27:51;;;;;;;1.57;0.80;;;8.80;99.90;;;;;;1919641;73;21078;-77
2022/04/08 08:30:19;;;;;;;1.22;0.75;;;8.80;99.90;;;;;;1926207;74;21102;-77
2022/04/08 08:32:48;;;;;;;0.82;0.70;;;8.90;99.90;;;;;;1924749;74;21206;-76
2022/04/08 08:35:19;;;;;;;4.90;1.00;;;8.60;99.90;;;;;;1922903;73;21132;-80
2022/04/08 08:37:49;;;;;;;1.70;0.60;;;8.60;99.90;;;;;;1926704;73;21073;-78
2022/04/08 08:40:17;;;;;;;1.87;0.80;;;8.50;99.90;;;;;;1932033;74;21127;-78
2022/04/08 08:42:46;;;;;;;1.45;0.60;;;8.30;99.90;;;;;;1893447;74;21116;-77
2022/04/08 08:45:14;;;;;;;1.52;0.90;;;8.30;99.90;;;;;;1915857;74;21121;-79
2022/04/08 08:47:45;;;;;;;1.22;0.60;;;8.30;99.90;;;;;;1923924;74;21041;-75
2022/04/08 08:50:12;;;;;;;4.83;1.00;;;8.20;99.90;;;;;;1924737;74;21066;-79
2022/04/08 08:52:41;;;;;;;1.52;0.88;;;8.20;99.90;;;;;;1923646;73;21129;-76
2022/04/08 08:55:15;;;;;;;1.75;0.80;;;8.10;99.90;;;;;;1925501;73;21129;-77
2022/04/08 08:57:45;;;;;;;3.60;0.85;;;8.30;99.90;;;;;;1925433;73;21048;-78
2022/04/08 09:00:16;;;;;;;2.15;0.78;;;8.40;99.90;;;;;;1926670;73;21087;-77
2022/04/08 09:02:43;;;;;;;7.33;1.10;;;8.20;99.90;;;;;;1922059;73;21206;-76
2022/04/08 09:05:20;;;;;;;2.27;0.78;;;8.30;99.90;;;;;;1924782;73;21062;-78
2022/04/08 09:07:54;;;;;;;3.62;1.12;;;8.30;99.90;;;;;;1923626;74;21018;-76
2022/04/08 09:10:47;;;;;;;3.98;0.88;;;8.40;99.90;;;;;;1923714;74;21038;-77
2022/04/08 09:13:23;;;;;;;4.00;1.12;;;8.40;99.90;;;;;;1901075;74;21083;-75
2022/04/08 09:15:55;;;;;;;3.12;0.93;;;8.30;99.90;;;;;;1931920;73;21078;-80
2022/04/08 09:18:23;;;;;;;1.52;0.75;;;8.40;99.90;;;;;;1924054;74;21137;-79
2022/04/08 09:20:51;;;;;;;3.10;0.65;;;8.30;99.90;;;;;;1926007;73;21202;-74
2022/04/08 09:23:19;;;;;;;5.72;2.70;;;8.20;99.90;;;;;;1923900;74;21086;-73
2022/04/08 09:25:49;;;;;;;5.08;2.37;;;8.30;99.90;;;;;;1922257;73;21505;-74
2022/04/08 09:28:18;;;;;;;2.72;1.12;;;8.50;99.90;;;;;;1929837;73;21097;-72
2022/04/08 09:30:49;;;;;;;2.77;0.80;;;8.50;99.90;;;;;;1923406;73;21261;-72
2022/04/08 09:33:19;;;;;;;1.05;0.70;;;8.70;99.90;;;;;;1918347;73;21014;-75
2022/04/08 09:35:46;;;;;;;2.30;0.85;;;8.80;99.90;;;;;;1933619;73;21079;-75
2022/04/08 09:38:21;;;;;;;19.17;1.40;;;8.90;99.90;;;;;;1920746;74;21068;-72
2022/04/08 09:40:49;;;;;;;6.00;0.72;;;8.90;99.90;;;;;;1921195;74;21538;-75
2022/04/08 09:43:16;;;;;;;1.87;0.80;;;8.90;99.90;;;;;;1927575;73;21079;-75
2022/04/08 09:45:46;;;;;;;1.87;1.00;;;8.80;99.90;;;;;;1921199;74;21554;-73
2022/04/08 09:48:13;;;;;;;1.05;0.50;;;8.70;99.90;;;;;;1923703;74;21128;-74
2022/04/08 09:50:42;;;;;;;1.25;0.60;;;8.70;99.90;;;;;;1924286;73;21135;-74
2022/04/08 09:53:11;;;;;;;1.02;0.55;;;8.40;99.90;;;;;;1929369;74;21485;-73
2022/04/08 09:55:38;;;;;;;0.50;0.50;;;8.40;99.90;;;;;;1924528;73;21120;-74
2022/04/08 09:58:08;;;;;;;1.20;0.60;;;8.20;99.90;;;;;;1926868;73;21128;-78
2022/04/08 10:00:37;;;;;;;1.85;0.60;;;8.50;99.90;;;;;;1924618;73;21132;-75
2022/04/08 10:03:05;;;;;;;3.40;0.70;;;8.70;99.90;;;;;;1923305;73;21132;-72
2022/04/08 10:05:32;;;;;;;3.62;0.90;;;9.00;99.90;;;;;;1923382;73;21516;-72
2022/04/08 10:08:04;;;;;;;1.47;0.75;;;9.10;99.90;;;;;;1925462;73;21144;-71
2022/04/08 10:10:38;;;;;;;3.08;0.60;;;9.20;99.90;;;;;;1923464;74;21073;-70
2022/04/08 10:13:28;;;;;;;0.85;0.50;;;9.30;99.90;;;;;;1924932;73;21139;-77
2022/04/08 10:16:07;;;;;;;2.08;0.55;;;9.40;99.90;;;;;;1925659;73;21120;-87
2022/04/08 10:18:37;;;;;;;1.50;0.68;;;9.40;99.90;;;;;;1899010;74;21085;-77
2022/04/08 10:21:05;;;;;;;1.98;0.80;;;9.40;99.90;;;;;;1923672;74;21572;-80
2022/04/08 10:23:41;;;;;;;0.95;0.60;;;9.30;99.90;;;;;;1924401;74;21607;-84
2022/04/08 10:26:22;;;;;;;0.72;0.50;;;9.30;99.90;;;;;;1924196;74;21017;-79
2022/04/08 10:28:55;;;;;;;1.50;0.80;;;9.30;99.90;;;;;;1923197;73;21046;-79
2022/04/08 10:31:35;;;;;;;2.67;0.55;;;9.40;99.90;;;;;;1925901;73;21074;-78
2022/04/08 10:34:02;;;;;;;1.10;0.50;;;9.40;99.90;;;;;;1922272;74;21515;-77
2022/04/08 10:36:38;;;;;;;1.07;0.40;;;9.20;99.90;;;;;;1924112;73;21054;-77
2022/04/08 10:39:14;;;;;;;0.85;0.60;;;9.20;99.90;;;;;;1926975;73;21143;-76
2022/04/08 10:41:55;;;;;;;4.95;0.80;;;9.30;99.90;;;;;;1924104;73;21069;-78
2022/04/08 10:44:38;;;;;;;0.93;0.55;;;9.40;99.90;;;;;;1921561;74;21073;-78
2022/04/08 10:47:27;;;;;;;1.50;0.70;;;9.40;99.90;;;;;;1924113;74;21131;-77
2022/04/08 10:50:07;;;;;;;6.40;0.80;;;9.20;99.90;;;;;;1928000;73;21134;-77
2022/04/08 10:52:41;;;;;;;1.62;0.80;;;9.20;99.90;;;;;;1924432;74;21207;-78
2022/04/08 10:55:12;;;;;;;1.07;0.60;;;8.90;99.90;;;;;;1924491;73;21054;-76
2022/04/08 10:57:42;;;;;;;0.78;0.78;;;8.70;99.90;;;;;;1924359;73;21055;-79
2022/04/08 11:00:14;;;;;;;2.17;0.82;;;8.70;99.90;;;;;;1921006;73;21479;-78
2022/04/08 11:02:43;;;;;;;3.75;0.90;;;9.10;99.90;;;;;;1929426;73;21132;-78
2022/04/08 11:05:15;;;;;;;1.85;0.60;;;9.00;99.90;;;;;;1929866;73;21167;-79
2022/04/08 11:07:45;;;;;;;0.50;0.50;;;9.10;99.90;;;;;;1923470;74;21081;-77
2022/04/08 11:10:13;;;;;;;1.00;0.60;;;9.00;99.90;;;;;;1923723;74;21010;-78
2022/04/08 11:12:51;;;;;;;1.22;0.57;;;9.20;99.90;;;;;;1923940;74;21062;-79
2022/04/08 11:15:23;;;;;;;1.00;0.62;;;8.90;99.90;;;;;;1927305;73;21069;-80
2022/04/08 11:17:52;;;;;;;1.82;0.70;;;8.90;99.90;;;;;;1921618;74;21029;-80
2022/04/08 11:20:22;;;;;;;0.88;0.50;;;8.70;99.90;;;;;;1925147;73;21135;-81
2022/04/08 11:22:53;;;;;;;2.27;1.00;;;8.90;99.90;;;;;;1926064;73;21039;-80
2022/04/08 11:25:28;;;;;;;1.52;0.88;;;8.80;99.90;;;;;;1926695;73;21455;-79
2022/04/08 11:28:11;;;;;;;1.82;0.98;;;8.40;99.90;;;;;;1924976;73;21186;-79
2022/04/08 11:31:00;;;;;;;0.95;0.90;;;8.40;99.90;;;;;;1922238;74;21082;-76
2022/04/08 11:33:29;;;;;;;1.92;0.90;;;8.60;99.90;;;;;;1933741;72;21445;-75
2022/04/08 11:36:00;;;;;;;1.85;0.70;;;8.30;99.90;;;;;;1928166;72;21044;-77
2022/04/08 11:38:30;;;;;;;4.12;0.80;;;7.90;99.90;;;;;;1932596;72;21134;-77
2022/04/08 11:40:57;;;;;;;1.80;0.78;;;8.20;99.90;;;;;;1960412;72;21069;-77
2022/04/08 11:43:25;;;;;;;1.00;0.90;;;8.40;99.90;;;;;;1929306;73;21105;-77
2022/04/08 11:45:55;;;;;;;1.98;0.85;;;8.40;99.90;;;;;;1926197;73;21073;-76
2022/04/08 11:48:26;;;;;;;0.80;0.80;;;8.20;99.90;;;;;;1925716;73;21143;-75
2022/04/08 11:50:56;;;;;;;0.93;0.68;;;8.00;99.90;;;;;;1925299;72;21383;-78
2022/04/08 11:53:24;;;;;;;2.00;0.85;;;8.30;99.90;;;;;;1941600;72;21143;-76
2022/04/08 11:55:56;;;;;;;2.10;0.90;;;8.20;99.90;;;;;;1955463;72;21064;-79
2022/04/08 11:58:24;;;;;;;2.12;0.70;;;8.10;99.90;;;;;;1959877;72;21164;-78
2022/04/08 12:00:52;;;;;;;1.27;1.10;;;8.30;99.90;;;;;;1933724;72;21060;-78
2022/04/08 12:03:22;;;;;;;1.05;0.70;;;8.30;99.90;;;;;;1926054;72;21447;-77
2022/04/08 12:05:53;;;;;;;1.55;0.68;;;8.30;99.90;;;;;;1931140;72;21060;-77
2022/04/08 12:08:20;;;;;;;1.15;0.80;;;8.30;99.90;;;;;;1945375;73;21534;-75
2022/04/08 12:10:58;;;;;;;1.50;0.70;;;8.50;99.90;;;;;;1944396;72;21068;-76
2022/04/08 12:13:27;;;;;;;1.20;0.85;;;8.50;99.90;;;;;;1938636;72;21446;-75
2022/04/08 12:15:56;;;;;;;1.25;0.50;;;8.50;99.90;;;;;;1937905;72;21465;-76
2022/04/08 12:18:26;;;;;;;2.67;0.50;;;8.70;99.90;;;;;;1932233;72;21259;-75
2022/04/08 12:20:54;;;;;;;1.37;0.78;;;8.60;99.90;;;;;;1930958;72;21086;-77
2022/04/08 12:23:23;;;;;;;1.10;0.60;;;8.50;99.90;;;;;;1930460;72;21474;-76
2022/04/08 12:25:52;;;;;;;1.02;0.60;;;8.50;99.90;;;;;;1946690;72;21137;-75
2022/04/08 12:28:22;;;;;;;2.22;0.60;;;8.40;99.90;;;;;;1937910;72;21127;-75
2022/04/08 12:30:49;;;;;;;;;;;8.20;99.90;;;;;;1930873;72;21142;-76
2022/04/08 12:33:17;;;;;;;0.98;0.60;;;8.30;99.90;;;;;;1940867;72;20361;-76
2022/04/08 12:35:46;;;;;;;1.15;0.60;;;8.30;99.90;;;;;;1940782;72;21065;-76
2022/04/08 12:38:19;;;;;;;1.05;0.65;;;8.40;99.90;;;;;;1931081;72;21076;-76
2022/04/08 12:40:47;;;;;;;1.52;0.60;;;8.20;99.90;;;;;;1946422;72;21472;-75
2022/04/08 12:43:15;;;;;;;0.95;0.80;;;8.20;99.90;;;;;;1937250;72;21076;-74
2022/04/08 12:45:42;;;;;;;1.60;0.65;;;8.20;99.90;;;;;;1925153;72;20994;-75
2022/04/08 12:48:11;;;;;;;0.82;0.80;;;8.50;99.90;;;;;;1926472;73;21038;-74
2022/04/08 12:50:40;;;;;;;1.98;0.70;;;8.30;99.90;;;;;;1958129;73;21120;-75
2022/04/08 12:53:07;;;;;;;1.87;0.70;;;8.10;99.90;;;;;;1956796;72;21126;-76
2022/04/08 12:55:35;;;;;;;1.02;0.68;;;7.70;99.90;;;;;;1948212;72;21598;-75
2022/04/08 12:58:02;;;;;;;2.15;0.80;;;7.80;99.90;;;;;;1924591;72;21067;-76
2022/04/08 13:00:30;;;;;;;2.45;0.93;;;8.00;99.90;;;;;;1939103;73;21514;-76
2022/04/08 13:02:57;;;;;;;0.98;0.68;;;8.30;99.90;;;;;;1932264;72;21457;-74
2022/04/08 13:05:24;;;;;;;1.37;0.60;;;8.50;99.90;;;;;;1932766;72;21227;-74